createdAt,value
2022-10-12T00:00:59.657Z,9.34
2022-10-12T00:03:26.210Z,9.45
2022-10-12T00:06:01.211Z,9.55
2022-10-12T00:08:27.843Z,9.58
2022-10-12T00:10:54.439Z,9.62
2022-10-12T00:13:22.396Z,9.66
2022-10-12T00:15:48.964Z,9.70
2022-10-12T00:18:15.573Z,9.71
2022-10-12T00:20:42.142Z,9.72
2022-10-12T00:23:08.690Z,9.75
2022-10-12T00:25:36.447Z,9.81
2022-10-12T00:28:03.041Z,9.86
2022-10-12T00:30:31.091Z,9.89
2022-10-12T00:32:57.717Z,9.93
2022-10-12T00:35:24.777Z,9.95
2022-10-12T00:37:53.938Z,9.94
2022-10-12T00:40:20.627Z,9.98
2022-10-12T00:42:47.168Z,9.99
2022-10-12T00:45:13.809Z,9.95
2022-10-12T00:47:48.871Z,9.90
2022-10-12T00:50:21.081Z,9.90
2022-10-12T00:53:00.721Z,9.85
2022-10-12T00:55:30.386Z,9.81
2022-10-12T00:57:57.201Z,9.86
2022-10-12T01:00:23.926Z,9.93
2022-10-12T01:02:53.626Z,9.94
2022-10-12T01:05:20.869Z,10.00
2022-10-12T01:07:47.430Z,10.03
2022-10-12T01:10:14.612Z,10.02
2022-10-12T01:12:43.535Z,10.01
2022-10-12T01:15:11.727Z,10.07
2022-10-12T01:17:45.875Z,10.04
2022-10-12T01:20:34.023Z,9.96
2022-10-12T01:23:20.835Z,9.97
2022-10-12T01:26:08.038Z,10.01
2022-10-12T01:28:45.562Z,10.04
2022-10-12T01:31:20.443Z,10.08
2022-10-12T01:33:53.724Z,10.10
2022-10-12T01:36:31.618Z,10.13
2022-10-12T01:39:03.957Z,10.12
2022-10-12T01:41:36.106Z,10.07
2022-10-12T01:44:02.723Z,10.10
2022-10-12T01:46:52.098Z,10.18
2022-10-12T01:49:22.859Z,10.24
2022-10-12T01:52:16.034Z,10.06
2022-10-12T01:54:53.716Z,10.05
2022-10-12T01:57:28.696Z,10.10
2022-10-12T02:00:02.690Z,10.19
2022-10-12T02:02:38.930Z,10.26
2022-10-12T02:05:12.521Z,10.28
2022-10-12T02:07:42.620Z,10.32
2022-10-12T02:10:14.664Z,10.32
2022-10-12T02:12:43.909Z,10.27
2022-10-12T02:15:12.920Z,10.31
2022-10-12T02:17:44.369Z,10.35
2022-10-12T02:20:15.065Z,10.39
2022-10-12T02:22:44.879Z,10.41
2022-10-12T02:25:16.857Z,10.43
2022-10-12T02:27:49.007Z,10.40
2022-10-12T02:30:19.236Z,10.35
2022-10-12T02:32:54.699Z,10.39
2022-10-12T02:35:26.480Z,10.40
2022-10-12T02:37:56.516Z,10.39
2022-10-12T02:40:30.239Z,10.38
2022-10-12T02:43:11.150Z,10.37
2022-10-12T02:45:40.936Z,10.34
2022-10-12T02:48:11.295Z,10.29
2022-10-12T02:50:38.229Z,10.17
2022-10-12T02:53:05.254Z,10.25
2022-10-12T02:55:31.984Z,10.30
2022-10-12T02:57:58.565Z,10.27
2022-10-12T03:00:25.167Z,10.28
2022-10-12T03:02:51.744Z,10.27
2022-10-12T03:05:19.643Z,10.28
2022-10-12T03:07:46.180Z,10.33
2022-10-12T03:10:12.732Z,10.35
2022-10-12T03:12:39.250Z,10.39
2022-10-12T03:15:06.617Z,10.40
2022-10-12T03:17:33.153Z,10.41
2022-10-12T03:19:59.681Z,10.44
2022-10-12T03:22:27.573Z,10.41
2022-10-12T03:24:54.108Z,10.33
2022-10-12T03:27:20.658Z,10.30
2022-10-12T03:29:47.179Z,10.27
2022-10-12T03:32:13.751Z,10.26
2022-10-12T03:34:40.247Z,10.31
2022-10-12T03:37:06.822Z,10.33
2022-10-12T03:39:34.709Z,10.34
2022-10-12T03:42:01.360Z,10.44
2022-10-12T03:44:27.879Z,10.37
2022-10-12T03:46:54.456Z,10.31
2022-10-12T03:49:20.983Z,10.40
2022-10-12T03:51:47.608Z,10.42
2022-10-12T03:54:14.313Z,10.39
2022-10-12T03:56:42.263Z,10.40
2022-10-12T03:59:08.904Z,10.30
2022-10-12T04:01:35.506Z,10.30
2022-10-12T04:04:02.077Z,10.36
2022-10-12T04:06:29.019Z,10.45
2022-10-12T04:08:55.554Z,10.53
2022-10-12T04:11:22.133Z,10.61
2022-10-12T04:13:49.991Z,10.66
2022-10-12T04:16:16.660Z,10.66
2022-10-12T04:18:43.158Z,10.66
2022-10-12T04:21:13.106Z,10.67
2022-10-12T04:23:39.747Z,10.52
2022-10-12T04:26:06.808Z,10.50
2022-10-12T04:28:33.750Z,10.49
2022-10-12T04:31:01.649Z,10.41
2022-10-12T04:33:28.194Z,10.34
2022-10-12T04:35:54.708Z,10.29
2022-10-12T04:38:21.237Z,10.26
2022-10-12T04:40:48.392Z,10.36
2022-10-12T04:43:15.321Z,10.30
2022-10-12T04:45:41.940Z,10.34
2022-10-12T04:48:09.937Z,10.19
2022-10-12T04:50:36.646Z,10.05
2022-10-12T04:53:03.196Z,9.87
2022-10-12T04:55:29.695Z,9.93
2022-10-12T04:57:56.218Z,10.02
2022-10-12T05:00:22.714Z,10.11
2022-10-12T05:02:49.290Z,10.05
2022-10-12T05:05:17.275Z,10.00
2022-10-12T05:07:43.833Z,10.02
2022-10-12T05:10:10.463Z,10.06
2022-10-12T05:12:37.305Z,9.90
2022-10-12T05:15:04.723Z,9.85
2022-10-12T05:17:31.278Z,9.83
2022-10-12T05:19:57.822Z,9.86
2022-10-12T05:22:25.789Z,9.92
2022-10-12T05:24:53.905Z,9.99
2022-10-12T05:27:20.790Z,9.84
2022-10-12T05:29:47.339Z,9.79
2022-10-12T05:32:13.928Z,9.77
2022-10-12T05:34:40.483Z,9.74
2022-10-12T05:37:07.024Z,9.81
2022-10-12T05:39:34.954Z,9.84
2022-10-12T05:42:01.519Z,9.92
2022-10-12T05:44:28.098Z,9.89
2022-10-12T05:46:54.666Z,9.67
2022-10-12T05:49:21.969Z,9.77
2022-10-12T05:51:48.509Z,9.78
2022-10-12T05:54:15.064Z,9.80
2022-10-12T05:56:42.995Z,9.93
2022-10-12T05:59:10.617Z,9.83
2022-10-12T06:01:37.234Z,9.90
2022-10-12T06:04:04.150Z,10.01
2022-10-12T06:06:30.769Z,10.00
2022-10-12T06:08:57.320Z,10.06
2022-10-12T06:11:23.873Z,10.09
2022-10-12T06:13:51.798Z,10.13
2022-10-12T06:16:18.336Z,10.06
2022-10-12T06:18:44.896Z,10.25
2022-10-12T06:23:58.102Z,10.37
2022-10-12T06:26:24.759Z,10.37
2022-10-12T06:28:52.764Z,10.43
2022-10-12T06:31:19.503Z,10.46
2022-10-12T06:33:46.071Z,10.29
2022-10-12T06:36:12.596Z,10.48
2022-10-12T06:38:39.139Z,10.58
2022-10-12T06:41:05.998Z,10.58
2022-10-12T06:43:32.539Z,10.65
2022-10-12T06:46:01.663Z,10.75
2022-10-12T06:48:28.427Z,10.72
2022-10-12T06:50:55.116Z,10.77
2022-10-12T06:53:21.712Z,10.88
2022-10-12T06:55:48.309Z,10.98
2022-10-12T06:58:14.854Z,10.93
2022-10-12T07:00:41.434Z,10.94
2022-10-12T07:03:12.144Z,11.11
2022-10-12T07:05:38.753Z,11.27
2022-10-12T07:08:05.286Z,11.49
2022-10-12T07:10:31.839Z,11.62
2022-10-12T07:12:58.372Z,11.74
2022-10-12T07:15:25.007Z,11.82
2022-10-12T07:17:51.534Z,11.86
2022-10-12T07:20:19.450Z,11.89
2022-10-12T07:22:45.967Z,11.83
2022-10-12T07:25:12.514Z,11.70
2022-10-12T07:27:39.392Z,11.79
2022-10-12T07:30:07.398Z,11.99
2022-10-12T07:32:33.938Z,12.14
2022-10-12T07:35:00.459Z,12.19
2022-10-12T07:37:28.386Z,12.27
2022-10-12T07:39:54.927Z,12.31
2022-10-12T07:42:21.448Z,12.33
2022-10-12T07:44:47.994Z,12.37
2022-10-12T07:47:14.653Z,12.32
2022-10-12T07:49:41.253Z,12.32
2022-10-12T07:52:07.784Z,12.49
2022-10-12T07:54:35.722Z,12.51
2022-10-12T07:57:02.285Z,12.58
2022-10-12T07:59:28.977Z,12.58
2022-10-12T08:01:55.603Z,12.62
2022-10-12T08:04:22.223Z,12.45
2022-10-12T08:06:48.772Z,12.59
2022-10-12T08:09:15.335Z,12.64
2022-10-12T08:11:43.212Z,12.77
2022-10-12T08:14:13.588Z,13.02
2022-10-12T08:16:41.783Z,13.25
2022-10-12T08:19:08.344Z,13.44
2022-10-12T08:21:34.896Z,13.61
2022-10-12T08:24:01.530Z,13.77
2022-10-12T08:26:28.087Z,13.93
2022-10-12T08:28:56.180Z,14.10
2022-10-12T08:31:22.782Z,14.23
2022-10-12T08:33:49.316Z,14.25
2022-10-12T08:36:16.094Z,14.36
2022-10-12T08:38:42.661Z,14.48
2022-10-12T08:41:23.898Z,14.70
2022-10-12T08:44:28.443Z,14.81
2022-10-12T08:46:56.620Z,14.92
2022-10-12T08:49:26.179Z,14.98
2022-10-12T08:51:55.143Z,14.98
2022-10-12T08:54:24.836Z,14.87
2022-10-12T08:56:53.369Z,14.75
2022-10-12T08:59:20.097Z,15.03
2022-10-12T09:02:01.877Z,15.17
2022-10-12T09:04:45.214Z,15.35
2022-10-12T09:07:17.984Z,15.41
2022-10-12T09:09:57.611Z,15.25
2022-10-12T09:12:38.079Z,15.35
2022-10-12T09:15:11.963Z,15.33
2022-10-12T09:17:44.387Z,15.35
2022-10-12T09:20:17.676Z,15.58
2022-10-12T09:22:47.832Z,15.57
2022-10-12T09:25:16.439Z,15.42
2022-10-12T09:27:45.480Z,15.02
2022-10-12T09:30:14.497Z,15.11
2022-10-12T09:32:59.026Z,15.28
2022-10-12T09:35:25.682Z,15.48
2022-10-12T09:37:53.624Z,15.78
2022-10-12T09:40:22.946Z,15.87
2022-10-12T09:42:50.838Z,15.74
2022-10-12T09:45:19.736Z,16.04
2022-10-12T09:48:13.562Z,15.95
2022-10-12T09:50:42.178Z,15.71
2022-10-12T09:53:15.013Z,15.59
2022-10-12T09:55:52.951Z,15.49
2022-10-12T09:58:21.400Z,15.49
2022-10-12T10:01:15.776Z,15.63
2022-10-12T10:03:43.717Z,15.73
2022-10-12T10:06:10.420Z,15.60
2022-10-12T10:08:42.458Z,15.73
2022-10-12T10:11:15.139Z,15.68
2022-10-12T10:13:48.060Z,15.98
2022-10-12T10:16:14.878Z,16.10
2022-10-12T10:18:45.011Z,16.46
2022-10-12T10:21:13.719Z,16.48
2022-10-12T10:23:44.564Z,16.24
2022-10-12T10:26:14.133Z,16.53
2022-10-12T10:28:42.642Z,16.64
2022-10-12T10:31:18.466Z,16.36
2022-10-12T10:34:04.403Z,16.34
2022-10-12T10:36:34.329Z,16.62
2022-10-12T10:39:02.736Z,16.66
2022-10-12T10:41:34.523Z,16.50
2022-10-12T10:44:01.117Z,16.35
2022-10-12T10:46:30.931Z,16.16
2022-10-12T10:49:01.445Z,16.32
2022-10-12T10:51:43.326Z,16.56
2022-10-12T10:54:13.942Z,16.71
2022-10-12T10:56:40.673Z,16.91
2022-10-12T10:59:19.008Z,16.88
2022-10-12T11:01:52.919Z,16.52
2022-10-12T11:04:26.154Z,16.56
2022-10-12T11:06:55.743Z,16.72
2022-10-12T11:09:26.817Z,16.67
2022-10-12T11:11:57.620Z,16.52
2022-10-12T11:14:31.029Z,16.14
2022-10-12T11:17:00.985Z,16.16
2022-10-12T11:19:33.979Z,16.20
2022-10-12T11:22:04.740Z,16.24
2022-10-12T11:24:38.493Z,16.29
2022-10-12T11:27:11.015Z,16.44
2022-10-12T11:29:38.191Z,16.47
2022-10-12T11:32:12.412Z,16.28
2022-10-12T11:34:48.365Z,16.12
2022-10-12T11:37:20.949Z,16.18
2022-10-12T11:39:51.725Z,16.18
2022-10-12T11:42:27.424Z,16.27
2022-10-12T11:44:54.809Z,16.31
2022-10-12T11:47:31.390Z,16.33
2022-10-12T11:50:02.274Z,16.38
2022-10-12T11:52:35.902Z,16.39
2022-10-12T11:55:25.049Z,16.39
2022-10-12T11:57:54.310Z,16.46
2022-10-12T12:00:24.882Z,16.49
2022-10-12T12:02:58.810Z,16.48
2022-10-12T12:05:31.169Z,16.62
2022-10-12T12:07:57.833Z,16.60
2022-10-12T12:10:44.487Z,16.61
2022-10-12T12:13:20.291Z,16.70
2022-10-12T12:16:31.651Z,16.88
2022-10-12T12:19:30.763Z,16.94
2022-10-12T12:22:26.964Z,16.98
2022-10-12T12:25:19.253Z,17.11
2022-10-12T12:27:49.918Z,17.22
2022-10-12T12:30:36.872Z,17.37
2022-10-12T12:33:07.013Z,17.64
2022-10-12T12:35:38.368Z,17.79
2022-10-12T12:38:16.825Z,17.56
2022-10-12T12:41:05.705Z,17.33
2022-10-12T12:44:01.351Z,17.23
2022-10-12T12:47:32.609Z,17.26
2022-10-12T12:49:57.181Z,17.08
2022-10-12T12:52:27.501Z,17.25
2022-10-12T12:55:27.033Z,17.37
2022-10-12T12:58:15.048Z,17.69
2022-10-12T13:00:56.654Z,17.76
2022-10-12T13:04:03.130Z,17.72
2022-10-12T13:07:29.269Z,18.15
2022-10-12T13:10:22.030Z,18.36
2022-10-12T13:13:11.140Z,17.98
2022-10-12T13:15:49.717Z,18.05
2022-10-12T13:18:47.621Z,18.04
2022-10-12T13:21:19.246Z,18.01
2022-10-12T13:23:49.039Z,17.93
2022-10-12T13:26:21.710Z,17.94
2022-10-12T13:28:49.103Z,17.93
2022-10-12T13:31:19.818Z,18.02
2022-10-12T13:33:53.975Z,17.73
2022-10-12T13:36:23.360Z,17.36
2022-10-12T13:38:55.700Z,16.98
2022-10-12T13:41:25.119Z,16.92
2022-10-12T13:43:54.273Z,17.07
2022-10-12T13:46:40.649Z,17.09
2022-10-12T13:49:14.444Z,17.16
2022-10-12T13:51:42.766Z,17.01
2022-10-12T13:54:17.540Z,17.06
2022-10-12T13:56:47.812Z,16.98
2022-10-12T13:59:19.080Z,17.00
2022-10-12T14:01:50.503Z,17.01
2022-10-12T14:04:17.064Z,16.96
2022-10-12T14:06:47.919Z,16.82
2022-10-12T14:09:18.447Z,16.85
2022-10-12T14:11:47.063Z,16.84
2022-10-12T14:14:20.344Z,16.81
2022-10-12T14:16:46.923Z,16.76
2022-10-12T14:19:21.715Z,16.73
2022-10-12T14:21:49.019Z,16.71
2022-10-12T14:24:18.805Z,16.68
2022-10-12T14:26:54.327Z,16.63
2022-10-12T14:29:36.201Z,16.49
2022-10-12T14:32:03.549Z,16.51
2022-10-12T14:34:42.163Z,16.48
2022-10-12T14:37:28.855Z,16.46
2022-10-12T14:39:56.423Z,16.40
2022-10-12T14:42:29.671Z,16.37
2022-10-12T14:44:56.332Z,16.34
2022-10-12T14:47:25.246Z,16.30
2022-10-12T14:49:54.128Z,16.28
2022-10-12T14:52:24.788Z,16.22
2022-10-12T14:54:51.666Z,16.13
2022-10-12T14:57:19.396Z,16.07
2022-10-12T14:59:47.703Z,16.07
2022-10-12T15:02:19.523Z,16.01
2022-10-12T15:04:46.699Z,16.02
2022-10-12T15:07:15.850Z,16.09
2022-10-12T15:09:42.456Z,16.09
2022-10-12T15:12:11.768Z,16.11
2022-10-12T15:14:38.340Z,16.10
2022-10-12T15:17:06.204Z,16.13
2022-10-12T15:19:32.778Z,16.12
2022-10-12T15:21:59.285Z,16.06
2022-10-12T15:24:25.819Z,15.99
2022-10-12T15:26:52.411Z,15.99
2022-10-12T15:29:18.941Z,15.99
2022-10-12T15:31:48.969Z,15.92
2022-10-12T15:34:19.003Z,15.89
2022-10-12T15:36:45.555Z,15.80
2022-10-12T15:39:12.143Z,15.70
2022-10-12T15:41:38.727Z,15.62
2022-10-12T15:44:06.270Z,15.52
2022-10-12T15:46:32.809Z,15.41
2022-10-12T15:48:59.293Z,15.26
2022-10-12T15:51:27.211Z,15.07
2022-10-12T15:53:54.597Z,14.97
2022-10-12T15:56:22.326Z,14.78
2022-10-12T15:58:49.022Z,14.62
2022-10-12T16:01:19.854Z,14.50
2022-10-12T16:03:47.438Z,14.36
2022-10-12T16:06:14.406Z,14.24
2022-10-12T16:08:42.463Z,14.10
2022-10-12T16:11:13.131Z,14.07
2022-10-12T16:13:46.365Z,13.98
2022-10-12T16:16:15.627Z,13.91
2022-10-12T16:18:42.187Z,13.79
2022-10-12T16:21:09.096Z,13.67
2022-10-12T16:23:36.990Z,13.62
2022-10-12T16:26:08.120Z,13.59
2022-10-12T16:28:34.869Z,13.59
2022-10-12T16:31:01.678Z,13.50
2022-10-12T16:33:28.218Z,13.42
2022-10-12T16:35:54.786Z,13.35
2022-10-12T16:38:21.339Z,13.23
2022-10-12T16:40:48.152Z,13.15
2022-10-12T16:43:16.023Z,13.07
2022-10-12T16:45:42.554Z,13.12
2022-10-12T16:48:09.119Z,13.09
2022-10-12T16:50:38.466Z,13.04
2022-10-12T16:53:04.994Z,13.02
2022-10-12T16:55:31.554Z,12.95
2022-10-12T16:57:58.074Z,12.87
2022-10-12T17:00:25.953Z,12.75
2022-10-12T17:02:57.266Z,12.78
2022-10-12T17:05:24.103Z,12.77
2022-10-12T17:07:50.617Z,12.77
2022-10-12T17:10:17.286Z,12.73
2022-10-12T17:12:43.814Z,12.63
2022-10-12T17:15:10.588Z,12.48
2022-10-12T17:17:38.437Z,12.47
2022-10-12T17:20:05.787Z,12.47
2022-10-12T17:22:32.319Z,12.29
2022-10-12T17:24:58.828Z,12.17
2022-10-12T17:27:29.899Z,12.16
2022-10-12T17:29:58.786Z,12.17
2022-10-12T17:32:25.310Z,12.15
2022-10-12T17:34:53.238Z,12.14
2022-10-12T17:37:19.767Z,12.14
2022-10-12T17:39:46.439Z,12.13
2022-10-12T17:42:13.388Z,12.14
2022-10-12T17:44:40.196Z,12.14
2022-10-12T17:47:06.986Z,12.08
2022-10-12T17:49:33.533Z,12.02
2022-10-12T17:52:01.394Z,12.06
2022-10-12T17:54:27.976Z,12.08
2022-10-12T17:56:55.114Z,11.94
2022-10-12T17:59:22.188Z,11.77
2022-10-12T18:01:49.708Z,11.76
2022-10-12T18:04:16.325Z,11.79
2022-10-12T18:06:43.027Z,11.67
2022-10-12T18:09:11.524Z,11.62
2022-10-12T18:11:38.286Z,11.67
2022-10-12T18:14:07.186Z,11.37
2022-10-12T18:16:34.455Z,11.33
2022-10-12T18:19:03.122Z,11.37
2022-10-12T18:21:31.955Z,11.20
2022-10-12T18:24:01.121Z,11.18
2022-10-12T18:26:29.055Z,11.07
2022-10-12T18:28:55.876Z,10.98
2022-10-12T18:31:24.165Z,10.86
2022-10-12T18:33:51.180Z,10.83
2022-10-12T18:36:19.246Z,10.80
2022-10-12T18:38:46.266Z,10.81
2022-10-12T18:41:16.165Z,10.70
2022-10-12T18:43:44.403Z,10.67
2022-10-12T18:46:13.291Z,10.68
2022-10-12T18:48:40.683Z,10.67
2022-10-12T18:51:09.311Z,10.56
2022-10-12T18:53:35.863Z,10.65
2022-10-12T18:56:03.374Z,10.72
2022-10-12T18:58:30.126Z,10.62
2022-10-12T19:00:58.313Z,10.59
2022-10-12T19:03:26.197Z,10.61
2022-10-12T19:06:01.816Z,10.58
2022-10-12T19:08:28.450Z,10.62
2022-10-12T19:10:54.960Z,10.56
2022-10-12T19:13:21.505Z,10.52
2022-10-12T19:15:48.025Z,10.35
2022-10-12T19:18:15.908Z,10.33
2022-10-12T19:20:42.438Z,10.26
2022-10-12T19:23:08.985Z,10.31
2022-10-12T19:25:37.112Z,10.25
2022-10-12T19:28:03.729Z,10.20
2022-10-12T19:30:30.288Z,10.22
2022-10-12T19:32:56.846Z,10.19
2022-10-12T19:35:24.710Z,10.21
2022-10-12T19:37:51.302Z,10.22
2022-10-12T19:40:18.932Z,10.30
2022-10-12T19:42:47.066Z,10.33
2022-10-12T19:45:13.614Z,10.35
2022-10-12T19:47:40.188Z,10.37
2022-10-12T19:50:06.949Z,10.48
2022-10-12T19:52:34.825Z,10.49
2022-10-12T19:55:01.330Z,10.54
2022-10-12T19:57:27.879Z,10.55
2022-10-12T19:59:54.400Z,10.51
2022-10-12T20:02:21.262Z,10.62
2022-10-12T20:04:47.956Z,10.62
2022-10-12T20:07:14.490Z,10.66
2022-10-12T20:09:42.373Z,10.75
2022-10-12T20:12:08.935Z,10.85
2022-10-12T20:14:35.471Z,10.90
2022-10-12T20:17:02.004Z,10.94
2022-10-12T20:19:28.737Z,10.96
2022-10-12T20:21:55.309Z,11.00
2022-10-12T20:24:21.876Z,11.02
2022-10-12T20:26:49.767Z,10.97
2022-10-12T20:29:16.310Z,10.97
2022-10-12T20:31:42.874Z,11.02
2022-10-12T20:34:09.429Z,11.06
2022-10-12T20:36:36.143Z,11.09
2022-10-12T20:39:03.405Z,11.11
2022-10-12T20:41:29.963Z,11.15
2022-10-12T20:43:59.921Z,11.11
2022-10-12T20:46:27.845Z,11.07
2022-10-12T20:48:58.600Z,11.11
2022-10-12T20:51:27.811Z,11.00
2022-10-12T20:53:54.951Z,10.94
2022-10-12T20:56:21.527Z,10.90
2022-10-12T20:58:48.085Z,10.85
2022-10-12T21:01:17.184Z,10.87
2022-10-12T21:03:43.935Z,10.84
2022-10-12T21:06:13.214Z,10.85
2022-10-12T21:08:40.230Z,10.82
2022-10-12T21:11:07.581Z,10.73
2022-10-12T21:13:35.678Z,10.57
2022-10-12T21:16:02.228Z,10.54
2022-10-12T21:18:34.058Z,10.49
2022-10-12T21:21:06.152Z,10.45
2022-10-12T21:23:32.703Z,10.44
2022-10-12T21:25:59.271Z,10.43
2022-10-12T21:28:25.821Z,10.44
2022-10-12T21:30:52.403Z,10.42
2022-10-12T21:33:18.926Z,10.37
2022-10-12T21:35:46.852Z,10.38
2022-10-12T21:38:13.385Z,10.31
2022-10-12T21:40:39.943Z,10.25
2022-10-12T21:43:06.508Z,10.23
2022-10-12T21:45:33.212Z,10.25
2022-10-12T21:47:59.771Z,10.15
2022-10-12T21:50:26.813Z,10.14
2022-10-12T21:53:00.065Z,10.03
2022-10-12T21:55:27.033Z,10.07
2022-10-12T21:57:53.568Z,10.12
2022-10-12T22:00:20.187Z,10.22
2022-10-12T22:02:46.703Z,10.18
2022-10-12T22:05:13.413Z,10.13
2022-10-12T22:07:41.642Z,10.00
2022-10-12T22:10:10.756Z,10.08
2022-10-12T22:12:38.075Z,10.01
2022-10-12T22:15:05.476Z,10.06
2022-10-12T22:17:32.006Z,10.06
2022-10-12T22:19:58.537Z,9.96
2022-10-12T22:22:25.080Z,9.77
2022-10-12T22:24:51.602Z,9.74
2022-10-12T22:27:19.558Z,9.66
2022-10-12T22:29:46.142Z,9.60
2022-10-12T22:32:12.706Z,9.58
2022-10-12T22:34:39.244Z,9.50
2022-10-12T22:37:05.764Z,9.48
2022-10-12T22:39:32.295Z,9.43
2022-10-12T22:41:58.827Z,9.38
2022-10-12T22:44:26.717Z,9.33
2022-10-12T22:46:53.263Z,9.24
2022-10-12T22:49:19.973Z,9.10
2022-10-12T22:51:46.471Z,9.10
2022-10-12T22:54:13.019Z,9.13
2022-10-12T22:56:39.965Z,9.08
2022-10-12T22:59:06.950Z,9.09
2022-10-12T23:01:35.871Z,8.98
2022-10-12T23:04:02.541Z,9.01
2022-10-12T23:06:29.075Z,9.06
2022-10-12T23:08:55.653Z,9.10
2022-10-12T23:11:24.639Z,9.09
2022-10-12T23:13:51.715Z,8.99
2022-10-12T23:16:20.420Z,9.03
2022-10-12T23:18:56.660Z,9.11
2022-10-12T23:21:26.004Z,9.06
2022-10-12T23:23:52.587Z,9.09
2022-10-12T23:26:21.111Z,9.06
2022-10-12T23:28:48.945Z,9.04
2022-10-12T23:31:17.337Z,9.13
2022-10-12T23:33:44.139Z,9.18
2022-10-12T23:36:14.184Z,9.24
2022-10-12T23:38:42.007Z,9.27
2022-10-12T23:41:09.496Z,9.32
2022-10-12T23:43:36.231Z,9.36
2022-10-12T23:46:03.507Z,9.42
2022-10-12T23:48:30.045Z,9.48
2022-10-12T23:50:56.745Z,9.51
2022-10-12T23:53:25.334Z,9.54
2022-10-12T23:55:52.465Z,9.59
2022-10-12T23:58:19.524Z,9.52
